KNSE/NSE METAR and TAF weather

Enter ICAO airport designator
Station Type Date Time Source
KNSE METAR 2023/02/04 02:56 UTC NOAA

KNSE 040256Z 35011KT 10SM CLR 08/M02 A3042 RMK AO2 SLP289 T00781017 51017 $


Station Type Date Time Source
KNSE Decoded METAR 2023/02/04 02:56 UTC NOAA

MILTON WHITING FIELD (NORTH), FL, United States (KNSE) 30-44N 87-01W 60M
Feb 03, 2023 - 09:56 PM EST / 2023.02.04 0256 UTC
Wind: from the N (350 degrees) at 13 MPH (11 KT):0
Visibility: 10 mile(s):0
Sky conditions: clear
Temperature: 46.0 F (7.8 C)
Dew Point: 28.9 F (-1.7 C)
Relative Humidity: 50%
Pressure (altimeter): 30.42 in. Hg (1030 hPa)
Pressure tendency: 0.05 inches (1.7 hPa) higher than three hours ago
ob: KNSE 040256Z 35011KT 10SM CLR 08/M02 A3042 RMK AO2 SLP289 T00781017 51017
cycle: 3

Station Type Date Time Source
KNSE TAF 2023/02/03 23:54 UTC NOAA

TAF KNSE 0323/0423 36008KT 9999 SKC QNH30330INS
FM040800 03007KT 9999 SKC QNH3039INS
FM041400 05007G15KT 9999 SKC QNH3041INS AUTOMATED SENSOR METWATCH 0405 TIL 0612 T02/0412Z T15/0420Z FN20030

Example: see airport list